Latest Weather Observations for Middle Percy Island

IDQ60801

Issued at 4:05 pm EST Sunday 20 April 2014 (issued every 30 minutes, with the page automatically refreshed every 10 minutes)

About weather observations | Map of weather stations | Latest weather observations for QLD | Other Formats
Station Details ID: 200001 Name: MIDDLE PERCY ISLAND Lat: -21.66 Lon: 150.27 Height: 208.7 m
Data from the previous 72 hours. | See also: Recent months at Middle Percy Island
Date/Time
EST
Temp
°C
App
Temp
°C
Dew
Point
Rel
Hum
%
Delta-T
°C
Wind Press
QNH
hPa
Press
MSL
hPa
Rain
since 9 am
mm
Dir
 
Spd
km/h
Gust
km/h
Spd
kts
Gust
kts
20/04:00pm 24.4 23.9 15.9 59 5.2 ESE 13 20 7 11 1017.0 1015.9 0.0
20/03:30pm 24.7 24.0 16.4 60 5.1 ESE 15 20 8 11 1016.9 - 0.0
20/03:00pm 25.0 24.2 16.2 58 5.4 SE 15 22 8 12 1016.8 1015.7 0.0
20/02:30pm 25.3 24.8 17.0 60 5.2 ESE 15 22 8 12 1016.9 - 0.0
20/02:00pm 25.4 25.1 17.3 61 5.1 SE 15 24 8 13 1016.9 1015.8 0.0
20/01:30pm 25.3 24.8 17.0 60 5.2 SE 15 20 8 11 1017.1 - 0.0
20/01:00pm 25.5 25.0 17.7 62 4.9 SE 17 26 9 14 1017.3 1016.3 0.0
20/12:30pm 25.4 25.4 17.3 61 5.1 ESE 13 22 7 12 1017.7 - 0.0
20/12:00pm 25.0 25.3 18.0 65 4.4 ESE 13 20 7 11 1018.0 1017.0 0.0
20/11:30am 24.3 23.3 16.6 62 4.8 SE 17 26 9 14 1018.4 - 0.0
20/11:00am 24.1 23.4 17.4 66 4.2 SE 17 22 9 12 1018.7 1017.7 0.0
20/10:30am 24.9 24.7 17.6 64 4.6 SE 15 24 8 13 1019.0 - 0.0
20/10:00am 24.4 24.0 17.1 63 4.5 SE 15 20 8 11 1019.0 1018.0 0.0
20/09:30am 24.9 26.0 18.1 66 4.3 ESE 9 19 5 10 1019.0 - 0.0
20/09:00am 24.4 24.8 18.1 68 4.0 ESE 13 22 7 12 1018.8 1017.8 0.0
20/08:30am 24.6 25.8 18.3 68 4.0 ESE 9 15 5 8 1018.5 - 0.0
20/08:00am 24.4 26.0 18.3 69 3.9 ESE 7 9 4 5 1018.2 1017.2 0.0
20/07:30am 23.4 24.8 17.4 69 3.7 E 6 9 3 5 1018.0 - 0.0
20/07:00am 22.9 24.3 17.8 73 3.2 E 7 11 4 6 1017.7 1016.7 0.0
20/06:30am 21.4 22.5 17.0 76 2.7 ENE 7 9 4 5 1017.3 - 0.0
20/06:00am 21.4 22.7 17.0 76 2.7 ENE 6 7 3 4 1017.2 1016.2 0.0
20/05:30am 21.4 22.7 17.0 76 2.7 NE 6 7 3 4 1017.1 - 0.0
20/05:00am 21.3 21.6 16.9 76 2.7 NNE 11 13 6 7 1016.7 1015.6 0.0
20/04:30am 21.3 21.6 16.9 76 2.7 NNE 11 15 6 8 1016.3 - 0.0
20/04:00am 21.3 21.9 16.9 76 2.7 NE 9 13 5 7 1016.1 1015.0 0.0
20/03:30am 21.5 21.9 17.3 77 2.6 NNE 11 15 6 8 1016.1 - 0.0
20/03:00am 21.1 21.7 16.9 77 2.6 NNE 9 13 5 7 1016.2 1015.1 0.0
20/02:30am 21.4 22.1 17.0 76 2.7 NNE 9 11 5 6 1016.4 - 0.0
20/02:00am 21.5 22.2 17.1 76 2.7 NNE 9 11 5 6 1016.3 1015.2 0.0
20/01:30am 21.9 22.0 17.5 76 2.7 NNE 13 19 7 10 1016.4 - 0.0
20/01:00am 21.9 21.9 17.1 74 3.0 NE 13 17 7 9 1016.7 1015.6 0.0
20/12:30am 21.6 21.4 16.8 74 3.0 NE 13 17 7 9 1016.8 - 0.0
20/12:00am 21.6 22.2 16.8 74 2.9 NE 9 13 5 7 1017.1 1016.0 0.0
 
Date/Time
EST
Temp
°C
App
Temp
°C
Dew
Point
Rel
Hum
%
Delta-T
°C
Wind Press
QNH
hPa
Press
MSL
hPa
Rain
since 9 am
mm
Dir
 
Spd
km/h
Gust
km/h
Spd
kts
Gust
kts
19/11:30pm 21.6 21.8 16.8 74 3.0 NE 11 15 6 8 1017.2 - 0.0
19/11:00pm 21.9 22.4 16.6 72 3.2 NE 9 13 5 7 1017.4 1016.4 0.0
19/10:30pm 22.1 22.7 16.8 72 3.3 NE 9 13 5 7 1017.4 - 0.0
19/10:00pm 22.0 21.9 16.9 73 3.1 NNE 13 19 7 10 1017.4 1016.4 0.0
19/09:30pm 22.2 22.0 16.7 71 3.4 NE 13 17 7 9 1017.6 - 0.0
19/09:00pm 22.1 22.6 16.6 71 3.4 NNE 9 13 5 7 1017.7 1016.7 0.0
19/08:30pm 22.2 22.3 16.5 70 3.5 NNE 11 17 6 9 1017.6 - 0.0
19/08:00pm 22.1 21.9 16.6 71 3.4 NE 13 15 7 8 1017.2 1016.2 0.0
19/07:30pm 22.4 22.2 16.7 70 3.5 NE 13 15 7 8 1017.1 - 0.0
19/07:00pm 22.0 21.9 16.1 69 3.6 NNE 11 15 6 8 1016.7 1015.6 0.0
19/06:30pm 22.0 21.7 16.5 71 3.4 NNE 13 15 7 8 1016.5 - 0.0
19/06:00pm 21.8 21.9 16.5 72 3.2 NNE 11 13 6 7 1016.3 1015.2 0.0
19/05:30pm 22.6 23.5 16.6 69 3.7 NNE 7 7 4 4 1016.2 - 0.0
19/05:00pm 23.9 26.1 17.4 67 4.1 N 2 6 1 3 1016.1 1015.0 0.0
19/04:30pm 24.3 25.7 17.3 65 4.4 N 6 7 3 4 1015.9 - 0.0
19/04:00pm 24.4 26.6 18.3 69 3.9 N 4 7 2 4 1015.9 1014.8 0.0
19/03:30pm 23.8 25.4 17.8 69 3.8 N 6 11 3 6 1015.9 - 0.0
19/03:00pm 25.1 26.9 18.3 66 4.3 N 6 9 3 5 1016.0 1014.9 0.0
19/02:30pm 24.2 26.1 18.6 71 3.6 NNW 6 7 3 4 1016.2 - 0.0
19/02:00pm 24.2 26.2 17.9 68 4.0 WNW 4 6 2 3 1016.4 1015.3 0.0
19/01:30pm 24.7 27.9 19.8 74 3.2 W 2 6 1 3 1016.7 - 0.0
19/01:00pm 24.0 26.4 18.9 73 3.3 W 4 6 2 3 1017.0 1015.9 0.0
19/12:30pm 24.4 27.0 18.3 69 3.9 SW 2 6 1 3 1017.3 - 0.0
19/12:00pm 25.0 27.0 18.7 68 4.0 S 6 11 3 6 1017.6 1016.6 0.0
19/11:30am 24.7 26.4 18.6 69 3.9 SSW 7 11 4 6 1018.0 - 0.0
19/11:00am 23.8 26.2 18.7 73 3.2 W 4 7 2 4 1018.4 1017.4 0.0
19/10:30am 25.6 28.5 19.9 70 3.7 NW 4 7 2 4 1018.7 - 0.0
19/10:00am 23.9 26.4 18.1 70 3.7 NW 2 6 1 3 1018.8 1017.8 0.0
19/09:30am 26.3 29.5 18.9 63 4.8 CALM 0 4 0 2 1018.9 - 0.0
19/09:00am 25.2 27.1 17.7 63 4.7 E 4 6 2 3 1018.9 1017.9 0.0
19/08:30am 24.3 26.2 16.8 63 4.7 ESE 2 6 1 3 1018.9 - 0.0
19/08:00am 24.5 27.1 18.4 69 3.9 ENE 2 6 1 3 1018.9 1017.9 0.0
19/07:30am 23.7 26.6 18.1 71 3.5 CALM 0 2 0 1 1018.6 - 0.0
19/07:00am 23.0 26.1 18.7 77 2.7 CALM 0 0 0 0 1018.5 1017.5 0.0
19/06:30am 22.2 24.7 18.2 78 2.5 N 2 4 1 2 1018.2 - 0.0
19/06:00am 22.3 24.9 18.3 78 2.5 N 2 4 1 2 1017.9 1016.9 0.0
19/05:30am 22.1 24.4 18.5 80 2.3 N 4 4 2 2 1017.7 - 0.0
19/05:00am 21.8 23.6 18.2 80 2.3 N 6 7 3 4 1017.4 1016.4 0.0
19/04:30am 21.7 23.5 18.3 81 2.1 N 6 7 3 4 1017.2 - 0.0
19/04:00am 21.1 22.2 17.9 82 2.0 N 9 11 5 6 1017.0 1015.9 0.0
19/03:30am 21.1 21.9 18.1 83 1.9 N 11 13 6 7 1016.9 - 0.0
19/03:00am 21.7 22.5 18.1 80 2.3 N 11 17 6 9 1017.0 1015.9 0.0
19/02:30am 21.7 22.2 18.3 81 2.1 N 13 17 7 9 1017.2 - 0.0
19/02:00am 21.9 22.4 18.3 80 2.3 N 13 17 7 9 1017.3 1016.3 0.0
19/01:30am 22.1 22.2 18.3 79 2.4 N 15 20 8 11 1017.5 - 0.0
19/01:00am 22.2 22.0 18.4 79 2.4 N 17 20 9 11 1017.6 1016.6 0.0
19/12:30am 22.3 22.2 18.7 80 2.3 NNE 17 22 9 12 1017.9 - 0.0
19/12:00am 22.4 22.7 18.8 80 2.3 NNE 15 20 8 11 1018.2 1017.2 0.0
 
Date/Time
EST
Temp
°C
App
Temp
°C
Dew
Point
Rel
Hum
%
Delta-T
°C
Wind Press
QNH
hPa
Press
MSL
hPa
Rain
since 9 am
mm
Dir
 
Spd
km/h
Gust
km/h
Spd
kts
Gust
kts
18/11:30pm 22.3 22.7 18.9 81 2.2 N 15 20 8 11 1018.2 - 0.0
18/11:00pm 22.4 23.4 19.4 83 1.9 NNE 13 20 7 11 1018.3 1017.3 0.0
18/10:30pm 22.1 22.9 19.1 83 1.9 NNE 13 15 7 8 1018.3 - 0.0
18/10:00pm 22.1 22.7 18.5 80 2.3 NNE 13 15 7 8 1018.3 1017.3 0.0
18/09:30pm 22.1 23.0 18.5 80 2.3 NNE 11 15 6 8 1018.1 - 0.0
18/09:00pm 22.3 22.9 18.7 80 2.3 NNE 13 17 7 9 1018.0 1017.0 0.0
18/08:30pm 22.4 22.7 18.8 80 2.3 NNE 15 20 8 11 1018.0 - 0.0
18/08:00pm 22.1 23.3 19.1 83 1.9 NNE 11 15 6 8 1017.8 1016.8 0.0
18/07:30pm 22.1 23.4 18.5 80 2.3 NNE 9 11 5 6 1017.6 - 0.0
18/07:00pm 22.3 23.2 18.5 79 2.4 NNE 11 15 6 8 1017.2 1016.2 0.0
18/06:30pm 22.2 23.2 18.6 80 2.3 NNE 11 15 6 8 1016.8 - 0.0
18/06:00pm 22.3 23.3 18.7 80 2.3 NNE 11 13 6 7 1016.6 1015.5 0.0
18/05:30pm 22.6 24.1 18.8 79 2.4 NNE 9 13 5 7 1016.4 - 0.0
18/05:00pm 23.6 25.4 18.7 74 3.1 NNE 7 9 4 5 1016.4 1015.3 0.0
18/04:30pm 24.2 25.8 19.1 73 3.3 NNE 9 13 5 7 1016.0 - 0.0
18/04:00pm 24.6 26.6 18.8 70 3.7 NE 6 13 3 7 1015.8 1014.7 0.0
18/03:30pm 25.1 26.6 19.0 69 3.9 NE 9 15 5 8 1015.5 - 0.0
18/03:00pm 25.2 26.5 19.3 70 3.8 ENE 11 15 6 8 1015.2 1014.2 0.0
18/02:30pm 24.7 26.4 18.6 69 3.9 E 7 13 4 7 1015.4 - 0.0
18/02:00pm 23.8 25.6 18.2 71 3.5 NNE 6 13 3 7 1015.8 1014.7 0.0
18/01:30pm 24.3 26.1 18.2 68 3.9 ENE 6 7 3 4 1016.1 - 0.0
18/01:00pm 24.4 27.1 18.6 70 3.7 SW 2 4 1 2 1016.5 1015.4 0.0
18/12:30pm 24.5 26.0 18.0 67 4.1 SE 7 15 4 8 1016.8 - 0.0
18/12:00pm 25.6 27.1 19.0 67 4.3 E 9 17 5 9 1017.1 1016.0 0.0
18/11:30am 25.5 26.8 19.4 69 4.0 ENE 11 17 6 9 1017.5 - 0.0
18/11:00am 25.6 26.8 18.3 64 4.7 ENE 9 15 5 8 1017.9 1016.9 0.0
18/10:30am 25.9 27.4 19.8 69 4.0 ENE 11 17 6 9 1018.3 - 0.0
18/10:00am 25.2 27.0 18.4 66 4.3 NE 6 9 3 5 1018.5 1017.5 0.0
18/09:30am 24.0 25.2 18.2 70 3.7 E 9 13 5 7 1018.6 - 0.0
18/09:00am 25.1 27.2 19.0 69 3.9 ESE 6 11 3 6 1018.6 1017.6 0.0
18/08:30am 25.0 27.8 19.6 72 3.5 E 4 9 2 5 1018.5 - 0.0
18/08:00am 24.3 26.3 18.7 71 3.6 E 6 7 3 4 1018.3 1017.3 0.0
18/07:30am 24.0 27.3 19.9 78 2.7 E 2 6 1 3 1018.1 - 0.0
18/07:00am 22.0 23.9 19.0 83 1.9 E 7 9 4 5 1018.0 1017.0 0.0
18/06:30am 21.7 23.7 18.7 83 1.9 E 6 7 3 4 1017.7 - 0.0
18/06:00am 21.7 23.6 18.9 84 1.8 E 7 7 4 4 1017.5 1016.5 0.0
18/05:30am 21.8 23.7 18.6 82 2.0 ENE 6 9 3 5 1017.2 - 0.0
18/05:00am 21.7 23.5 18.7 83 1.9 ENE 7 9 4 5 1017.1 1016.0 0.0
18/04:30am 21.9 23.9 18.7 82 2.0 ENE 6 9 3 5 1017.0 - 0.0
18/04:00am 21.9 23.9 18.7 82 2.0 NE 6 7 3 4 1017.0 1015.9 0.0
18/03:30am 21.9 23.4 18.9 83 1.9 NE 9 13 5 7 1016.8 - 0.0
18/03:00am 22.1 23.6 18.9 82 2.0 NE 9 15 5 8 1016.9 1015.8 0.0
18/02:30am 22.1 22.8 18.9 82 2.0 NNE 13 19 7 10 1016.9 - 0.0
18/02:00am 22.1 23.6 18.9 82 2.0 NE 9 13 5 7 1017.3 1016.3 0.0
18/01:30am 22.1 23.5 18.7 81 2.2 NE 9 15 5 8 1017.6 - 0.0
18/01:00am 22.4 23.5 18.8 80 2.3 NNE 11 17 6 9 1017.8 1016.8 0.0
18/12:30am 22.5 23.1 18.7 79 2.4 NNE 13 19 7 10 1018.0 - 0.0
18/12:00am 22.4 22.3 18.8 80 2.3 NNE 17 20 9 11 1018.1 1017.1 0.0
 
Date/Time
EST
Temp
°C
App
Temp
°C
Dew
Point
Rel
Hum
%
Delta-T
°C
Wind Press
QNH
hPa
Press
MSL
hPa
Rain
since 9 am
mm
Dir
 
Spd
km/h
Gust
km/h
Spd
kts
Gust
kts
17/11:30pm 22.4 22.8 19.0 81 2.2 NNE 15 19 8 10 1018.3 - 0.0
17/11:00pm 22.5 23.2 18.9 80 2.3 NNE 13 19 7 10 1018.5 1017.5 0.0
17/10:30pm 22.9 23.8 19.3 80 2.3 NNE 13 19 7 10 1018.7 - 0.0
17/10:00pm 22.8 23.7 19.2 80 2.3 NE 13 17 7 9 1018.6 1017.6 0.0
17/09:30pm 22.7 24.0 19.3 81 2.2 NE 11 17 6 9 1018.7 - 0.0
17/09:00pm 22.8 24.0 19.0 79 2.4 NE 11 17 6 9 1018.6 1017.6 0.0
17/08:30pm 22.6 23.9 19.2 81 2.2 ENE 11 15 6 8 1018.5 - 0.0
17/08:00pm 22.6 24.3 19.4 82 2.1 NE 9 13 5 7 1018.1 1017.1 0.0
17/07:30pm 22.6 23.3 18.8 79 2.4 NE 13 17 7 9 1017.6 - 0.0
17/07:00pm 22.6 23.7 18.8 79 2.4 NE 11 15 6 8 1017.3 1016.3 0.0
17/06:30pm 22.6 24.4 18.8 79 2.4 ENE 7 13 4 7 1017.0 - 0.0
17/06:00pm 22.7 23.7 18.7 78 2.5 ENE 11 15 6 8 1016.6 1015.5 0.0
17/05:30pm 23.0 24.2 18.3 75 3.0 NE 9 13 5 7 1016.5 - 0.0
17/05:00pm 23.7 25.0 18.4 72 3.4 NE 9 15 5 8 1016.4 1015.3 0.0
17/04:30pm 24.2 24.7 18.4 70 3.7 NNE 13 17 7 9 1016.3 - 0.0

Other Formats:

Comma delimited format used in spreadsheet applications
http://www.bom.gov.au/fwo/IDQ60801/IDQ60801.94372.axf

JavaScript Object Notation format (JSON) in row-major order
http://www.bom.gov.au/fwo/IDQ60801/IDQ60801.94372.json